sensor_id;sensor_type;location;lat;lon;timestamp;P1;durP1;ratioP1;P2;durP2;ratioP2
74689;SDS011;63221;51.860;-2.188;2022-09-09T00:01:08;9.10;;;4.33;;
74689;SDS011;63221;51.860;-2.188;2022-09-09T00:06:43;9.00;;;4.78;;
74689;SDS011;63221;51.860;-2.188;2022-09-09T00:09:19;7.17;;;3.53;;
74689;SDS011;63221;51.860;-2.188;2022-09-09T00:11:47;8.55;;;4.20;;
74689;SDS011;63221;51.860;-2.188;2022-09-09T00:17:26;6.57;;;4.45;;
74689;SDS011;63221;51.860;-2.188;2022-09-09T00:22:20;5.87;;;3.83;;
74689;SDS011;63221;51.860;-2.188;2022-09-09T00:24:54;7.05;;;3.72;;
74689;SDS011;63221;51.860;-2.188;2022-09-09T00:30:15;7.77;;;3.87;;
74689;SDS011;63221;51.860;-2.188;2022-09-09T00:32:44;6.45;;;4.22;;
74689;SDS011;63221;51.860;-2.188;2022-09-09T00:38:00;8.82;;;3.75;;
74689;SDS011;63221;51.860;-2.188;2022-09-09T00:40:32;7.25;;;3.55;;
74689;SDS011;63221;51.860;-2.188;2022-09-09T00:43:12;6.30;;;3.00;;
74689;SDS011;63221;51.860;-2.188;2022-09-09T00:46:10;7.47;;;3.58;;
74689;SDS011;63221;51.860;-2.188;2022-09-09T00:48:57;7.50;;;3.28;;
74689;SDS011;63221;51.860;-2.188;2022-09-09T00:54:33;6.15;;;3.30;;
74689;SDS011;63221;51.860;-2.188;2022-09-09T00:59:41;6.95;;;3.13;;
74689;SDS011;63221;51.860;-2.188;2022-09-09T01:02:21;5.73;;;3.03;;
74689;SDS011;63221;51.860;-2.188;2022-09-09T01:04:53;5.95;;;3.28;;
74689;SDS011;63221;51.860;-2.188;2022-09-09T01:07:19;7.88;;;3.20;;
74689;SDS011;63221;51.860;-2.188;2022-09-09T01:09:52;7.77;;;3.60;;
74689;SDS011;63221;51.860;-2.188;2022-09-09T01:12:33;6.43;;;2.95;;
74689;SDS011;63221;51.860;-2.188;2022-09-09T01:15:14;8.45;;;3.88;;
74689;SDS011;63221;51.860;-2.188;2022-09-09T01:17:53;5.38;;;3.85;;
74689;SDS011;63221;51.860;-2.188;2022-09-09T01:20:29;9.07;;;3.78;;
74689;SDS011;63221;51.860;-2.188;2022-09-09T01:28:37;7.25;;;3.92;;
74689;SDS011;63221;51.860;-2.188;2022-09-09T01:31:04;7.40;;;4.13;;
74689;SDS011;63221;51.860;-2.188;2022-09-09T01:33:31;8.45;;;4.82;;
74689;SDS011;63221;51.860;-2.188;2022-09-09T01:35:58;8.63;;;4.13;;
74689;SDS011;63221;51.860;-2.188;2022-09-09T01:38:28;7.45;;;4.50;;
74689;SDS011;63221;51.860;-2.188;2022-09-09T01:40:54;9.37;;;5.17;;
74689;SDS011;63221;51.860;-2.188;2022-09-09T01:43:20;8.18;;;5.07;;
74689;SDS011;63221;51.860;-2.188;2022-09-09T01:45:46;8.63;;;5.17;;
74689;SDS011;63221;51.860;-2.188;2022-09-09T01:48:13;8.52;;;5.32;;
74689;SDS011;63221;51.860;-2.188;2022-09-09T01:50:39;9.85;;;5.65;;
74689;SDS011;63221;51.860;-2.188;2022-09-09T01:53:04;10.20;;;5.60;;
74689;SDS011;63221;51.860;-2.188;2022-09-09T01:55:33;10.63;;;5.53;;
74689;SDS011;63221;51.860;-2.188;2022-09-09T02:03:54;11.35;;;6.25;;
74689;SDS011;63221;51.860;-2.188;2022-09-09T02:06:35;9.53;;;6.60;;
74689;SDS011;63221;51.860;-2.188;2022-09-09T02:09:04;8.30;;;6.03;;
74689;SDS011;63221;51.860;-2.188;2022-09-09T02:11:30;9.23;;;6.07;;
74689;SDS011;63221;51.860;-2.188;2022-09-09T02:14:03;10.98;;;6.30;;
74689;SDS011;63221;51.860;-2.188;2022-09-09T02:21:50;9.85;;;6.22;;
74689;SDS011;63221;51.860;-2.188;2022-09-09T02:24:18;10.88;;;6.55;;
74689;SDS011;63221;51.860;-2.188;2022-09-09T02:26:44;10.05;;;6.30;;
74689;SDS011;63221;51.860;-2.188;2022-09-09T02:29:13;8.68;;;6.10;;
74689;SDS011;63221;51.860;-2.188;2022-09-09T02:31:43;8.80;;;5.73;;
74689;SDS011;63221;51.860;-2.188;2022-09-09T02:34:10;11.07;;;5.72;;
74689;SDS011;63221;51.860;-2.188;2022-09-09T02:36:38;9.43;;;5.80;;
74689;SDS011;63221;51.860;-2.188;2022-09-09T02:39:06;9.73;;;5.82;;
74689;SDS011;63221;51.860;-2.188;2022-09-09T02:41:33;14.02;;;6.50;;
74689;SDS011;63221;51.860;-2.188;2022-09-09T02:44:01;11.53;;;6.37;;
74689;SDS011;63221;51.860;-2.188;2022-09-09T02:49:22;9.32;;;5.40;;
74689;SDS011;63221;51.860;-2.188;2022-09-09T02:52:02;10.38;;;6.18;;
74689;SDS011;63221;51.860;-2.188;2022-09-09T02:54:31;8.80;;;6.18;;
74689;SDS011;63221;51.860;-2.188;2022-09-09T02:57:01;11.87;;;7.00;;
74689;SDS011;63221;51.860;-2.188;2022-09-09T02:59:29;11.57;;;5.85;;
74689;SDS011;63221;51.860;-2.188;2022-09-09T03:01:55;11.10;;;6.00;;
74689;SDS011;63221;51.860;-2.188;2022-09-09T03:04:21;10.33;;;5.83;;
74689;SDS011;63221;51.860;-2.188;2022-09-09T03:06:46;10.93;;;6.57;;
74689;SDS011;63221;51.860;-2.188;2022-09-09T03:09:12;9.20;;;5.72;;
74689;SDS011;63221;51.860;-2.188;2022-09-09T03:11:37;11.63;;;6.30;;
74689;SDS011;63221;51.860;-2.188;2022-09-09T03:14:03;11.25;;;6.60;;
74689;SDS011;63221;51.860;-2.188;2022-09-09T03:16:29;11.20;;;5.57;;
74689;SDS011;63221;51.860;-2.188;2022-09-09T03:18:55;10.75;;;6.72;;
74689;SDS011;63221;51.860;-2.188;2022-09-09T03:21:20;11.40;;;6.40;;
74689;SDS011;63221;51.860;-2.188;2022-09-09T03:23:46;12.85;;;7.15;;
74689;SDS011;63221;51.860;-2.188;2022-09-09T03:26:11;11.73;;;6.47;;
74689;SDS011;63221;51.860;-2.188;2022-09-09T03:28:37;9.70;;;5.93;;
74689;SDS011;63221;51.860;-2.188;2022-09-09T03:31:03;12.40;;;7.03;;
74689;SDS011;63221;51.860;-2.188;2022-09-09T03:33:29;15.45;;;7.13;;
74689;SDS011;63221;51.860;-2.188;2022-09-09T03:35:56;10.23;;;7.17;;
74689;SDS011;63221;51.860;-2.188;2022-09-09T03:38:24;13.32;;;7.15;;
74689;SDS011;63221;51.860;-2.188;2022-09-09T03:40:50;12.32;;;6.95;;
74689;SDS011;63221;51.860;-2.188;2022-09-09T03:43:18;10.80;;;6.33;;
74689;SDS011;63221;51.860;-2.188;2022-09-09T03:45:45;12.88;;;7.07;;
74689;SDS011;63221;51.860;-2.188;2022-09-09T03:48:12;11.57;;;6.28;;
74689;SDS011;63221;51.860;-2.188;2022-09-09T03:50:38;11.98;;;7.03;;
74689;SDS011;63221;51.860;-2.188;2022-09-09T03:53:03;13.03;;;7.40;;
74689;SDS011;63221;51.860;-2.188;2022-09-09T03:55:31;10.20;;;6.13;;
74689;SDS011;63221;51.860;-2.188;2022-09-09T03:57:57;9.30;;;6.30;;
74689;SDS011;63221;51.860;-2.188;2022-09-09T04:00:22;10.40;;;6.27;;
74689;SDS011;63221;51.860;-2.188;2022-09-09T04:02:48;11.27;;;6.80;;
74689;SDS011;63221;51.860;-2.188;2022-09-09T04:05:14;11.65;;;6.13;;
74689;SDS011;63221;51.860;-2.188;2022-09-09T04:07:40;9.85;;;6.00;;
74689;SDS011;63221;51.860;-2.188;2022-09-09T04:10:06;8.93;;;5.70;;
74689;SDS011;63221;51.860;-2.188;2022-09-09T04:12:33;9.90;;;6.03;;
74689;SDS011;63221;51.860;-2.188;2022-09-09T04:14:59;9.55;;;5.82;;
74689;SDS011;63221;51.860;-2.188;2022-09-09T04:17:27;8.93;;;5.97;;
74689;SDS011;63221;51.860;-2.188;2022-09-09T04:19:52;9.80;;;5.68;;
74689;SDS011;63221;51.860;-2.188;2022-09-09T04:22:17;8.57;;;4.30;;
74689;SDS011;63221;51.860;-2.188;2022-09-09T04:24:43;9.50;;;5.47;;
74689;SDS011;63221;51.860;-2.188;2022-09-09T04:27:08;8.87;;;4.53;;
74689;SDS011;63221;51.860;-2.188;2022-09-09T04:29:34;8.90;;;5.67;;
74689;SDS011;63221;51.860;-2.188;2022-09-09T04:31:59;9.60;;;5.23;;
74689;SDS011;63221;51.860;-2.188;2022-09-09T04:34:25;8.00;;;4.97;;
74689;SDS011;63221;51.860;-2.188;2022-09-09T04:36:50;10.00;;;5.07;;
74689;SDS011;63221;51.860;-2.188;2022-09-09T04:39:17;8.83;;;5.27;;
74689;SDS011;63221;51.860;-2.188;2022-09-09T04:41:42;10.30;;;5.65;;
74689;SDS011;63221;51.860;-2.188;2022-09-09T04:44:07;9.13;;;4.57;;
74689;SDS011;63221;51.860;-2.188;2022-09-09T04:46:33;8.77;;;4.90;;
74689;SDS011;63221;51.860;-2.188;2022-09-09T04:48:59;9.48;;;4.70;;
74689;SDS011;63221;51.860;-2.188;2022-09-09T04:51:24;8.53;;;4.67;;
74689;SDS011;63221;51.860;-2.188;2022-09-09T04:53:50;11.63;;;5.73;;
74689;SDS011;63221;51.860;-2.188;2022-09-09T04:56:16;9.43;;;5.20;;
74689;SDS011;63221;51.860;-2.188;2022-09-09T04:58:42;8.23;;;4.35;;
74689;SDS011;63221;51.860;-2.188;2022-09-09T05:01:15;6.47;;;3.90;;
74689;SDS011;63221;51.860;-2.188;2022-09-09T05:03:42;7.93;;;4.07;;
74689;SDS011;63221;51.860;-2.188;2022-09-09T05:06:10;7.35;;;4.20;;
74689;SDS011;63221;51.860;-2.188;2022-09-09T05:08:38;7.18;;;3.80;;
74689;SDS011;63221;51.860;-2.188;2022-09-09T05:11:12;8.65;;;4.10;;
74689;SDS011;63221;51.860;-2.188;2022-09-09T05:13:38;5.83;;;3.93;;
74689;SDS011;63221;51.860;-2.188;2022-09-09T05:16:05;6.82;;;4.07;;
74689;SDS011;63221;51.860;-2.188;2022-09-09T05:18:30;5.67;;;3.47;;
74689;SDS011;63221;51.860;-2.188;2022-09-09T05:20:59;6.88;;;3.78;;
74689;SDS011;63221;51.860;-2.188;2022-09-09T05:23:25;7.03;;;4.23;;
74689;SDS011;63221;51.860;-2.188;2022-09-09T05:25:57;9.13;;;3.80;;
74689;SDS011;63221;51.860;-2.188;2022-09-09T05:28:26;5.73;;;3.33;;
74689;SDS011;63221;51.860;-2.188;2022-09-09T05:31:02;6.85;;;3.80;;
74689;SDS011;63221;51.860;-2.188;2022-09-09T05:33:30;5.22;;;2.83;;
74689;SDS011;63221;51.860;-2.188;2022-09-09T05:35:59;6.28;;;3.47;;
74689;SDS011;63221;51.860;-2.188;2022-09-09T05:38:33;7.35;;;3.30;;
74689;SDS011;63221;51.860;-2.188;2022-09-09T05:40:59;7.27;;;3.13;;
74689;SDS011;63221;51.860;-2.188;2022-09-09T05:43:25;6.88;;;3.15;;
74689;SDS011;63221;51.860;-2.188;2022-09-09T05:45:59;4.95;;;3.00;;
74689;SDS011;63221;51.860;-2.188;2022-09-09T05:48:30;6.22;;;3.25;;
74689;SDS011;63221;51.860;-2.188;2022-09-09T05:50:57;7.00;;;3.42;;
74689;SDS011;63221;51.860;-2.188;2022-09-09T05:53:22;6.20;;;3.10;;
74689;SDS011;63221;51.860;-2.188;2022-09-09T05:55:48;7.32;;;2.72;;
74689;SDS011;63221;51.860;-2.188;2022-09-09T05:58:13;6.03;;;3.30;;
74689;SDS011;63221;51.860;-2.188;2022-09-09T06:00:40;5.85;;;2.78;;
74689;SDS011;63221;51.860;-2.188;2022-09-09T06:03:05;5.17;;;3.77;;
74689;SDS011;63221;51.860;-2.188;2022-09-09T06:05:31;6.23;;;2.77;;
74689;SDS011;63221;51.860;-2.188;2022-09-09T06:07:56;4.30;;;2.70;;
74689;SDS011;63221;51.860;-2.188;2022-09-09T06:10:21;7.47;;;2.40;;
74689;SDS011;63221;51.860;-2.188;2022-09-09T06:12:47;10.10;;;3.40;;
74689;SDS011;63221;51.860;-2.188;2022-09-09T06:15:12;6.73;;;2.63;;
74689;SDS011;63221;51.860;-2.188;2022-09-09T06:17:38;5.83;;;3.70;;
74689;SDS011;63221;51.860;-2.188;2022-09-09T06:20:04;5.13;;;3.00;;
74689;SDS011;63221;51.860;-2.188;2022-09-09T06:22:29;6.47;;;2.97;;
74689;SDS011;63221;51.860;-2.188;2022-09-09T06:24:55;3.63;;;2.37;;
74689;SDS011;63221;51.860;-2.188;2022-09-09T06:27:20;4.37;;;2.10;;
74689;SDS011;63221;51.860;-2.188;2022-09-09T06:29:46;4.67;;;1.70;;
74689;SDS011;63221;51.860;-2.188;2022-09-09T06:32:11;3.88;;;1.27;;
74689;SDS011;63221;51.860;-2.188;2022-09-09T06:34:36;4.70;;;1.53;;
74689;SDS011;63221;51.860;-2.188;2022-09-09T06:37:02;3.63;;;2.00;;
74689;SDS011;63221;51.860;-2.188;2022-09-09T06:39:27;4.13;;;1.77;;
74689;SDS011;63221;51.860;-2.188;2022-09-09T06:41:53;2.60;;;1.10;;
74689;SDS011;63221;51.860;-2.188;2022-09-09T06:44:18;2.83;;;0.90;;
74689;SDS011;63221;51.860;-2.188;2022-09-09T06:46:45;2.95;;;1.70;;
74689;SDS011;63221;51.860;-2.188;2022-09-09T06:49:12;3.77;;;1.70;;
74689;SDS011;63221;51.860;-2.188;2022-09-09T06:51:38;3.03;;;1.88;;
74689;SDS011;63221;51.860;-2.188;2022-09-09T06:54:07;2.47;;;1.95;;
74689;SDS011;63221;51.860;-2.188;2022-09-09T06:56:35;2.37;;;1.60;;
74689;SDS011;63221;51.860;-2.188;2022-09-09T06:59:02;2.33;;;1.02;;
74689;SDS011;63221;51.860;-2.188;2022-09-09T07:01:33;2.67;;;1.00;;
74689;SDS011;63221;51.860;-2.188;2022-09-09T07:03:59;1.90;;;1.27;;
74689;SDS011;63221;51.860;-2.188;2022-09-09T07:06:26;1.60;;;1.13;;
74689;SDS011;63221;51.860;-2.188;2022-09-09T07:08:54;1.30;;;1.05;;
74689;SDS011;63221;51.860;-2.188;2022-09-09T07:11:25;3.58;;;1.15;;
74689;SDS011;63221;51.860;-2.188;2022-09-09T07:13:54;2.30;;;1.00;;
74689;SDS011;63221;51.860;-2.188;2022-09-09T07:16:20;3.00;;;1.23;;
74689;SDS011;63221;51.860;-2.188;2022-09-09T07:18:48;1.50;;;0.98;;
74689;SDS011;63221;51.860;-2.188;2022-09-09T07:21:15;1.90;;;0.75;;
74689;SDS011;63221;51.860;-2.188;2022-09-09T07:23:41;2.30;;;0.90;;
74689;SDS011;63221;51.860;-2.188;2022-09-09T07:26:14;2.00;;;1.17;;
74689;SDS011;63221;51.860;-2.188;2022-09-09T07:28:46;1.52;;;0.80;;
74689;SDS011;63221;51.860;-2.188;2022-09-09T07:31:14;1.85;;;0.88;;
74689;SDS011;63221;51.860;-2.188;2022-09-09T07:33:43;1.43;;;0.60;;
74689;SDS011;63221;51.860;-2.188;2022-09-09T07:36:12;5.55;;;1.42;;
74689;SDS011;63221;51.860;-2.188;2022-09-09T07:38:52;3.97;;;0.80;;
74689;SDS011;63221;51.860;-2.188;2022-09-09T07:41:20;1.92;;;0.55;;
74689;SDS011;63221;51.860;-2.188;2022-09-09T07:43:49;1.70;;;1.13;;
74689;SDS011;63221;51.860;-2.188;2022-09-09T07:46:16;3.80;;;1.77;;
74689;SDS011;63221;51.860;-2.188;2022-09-09T07:48:48;2.00;;;0.80;;
74689;SDS011;63221;51.860;-2.188;2022-09-09T07:51:24;5.93;;;1.25;;
74689;SDS011;63221;51.860;-2.188;2022-09-09T07:53:52;1.30;;;0.70;;
74689;SDS011;63221;51.860;-2.188;2022-09-09T07:56:23;1.58;;;0.85;;
74689;SDS011;63221;51.860;-2.188;2022-09-09T07:58:49;3.23;;;0.90;;
74689;SDS011;63221;51.860;-2.188;2022-09-09T08:01:19;2.05;;;0.70;;
74689;SDS011;63221;51.860;-2.188;2022-09-09T08:03:54;2.70;;;1.33;;
74689;SDS011;63221;51.860;-2.188;2022-09-09T08:06:23;2.13;;;0.88;;
74689;SDS011;63221;51.860;-2.188;2022-09-09T08:08:50;3.30;;;0.75;;
74689;SDS011;63221;51.860;-2.188;2022-09-09T08:11:16;4.03;;;2.90;;
74689;SDS011;63221;51.860;-2.188;2022-09-09T08:13:42;6.10;;;4.85;;
74689;SDS011;63221;51.860;-2.188;2022-09-09T08:16:10;5.55;;;2.45;;
74689;SDS011;63221;51.860;-2.188;2022-09-09T08:18:37;2.17;;;1.50;;
74689;SDS011;63221;51.860;-2.188;2022-09-09T08:21:07;2.33;;;1.30;;
74689;SDS011;63221;51.860;-2.188;2022-09-09T08:23:44;3.47;;;1.30;;
74689;SDS011;63221;51.860;-2.188;2022-09-09T08:29:02;2.40;;;0.75;;
74689;SDS011;63221;51.860;-2.188;2022-09-09T08:31:30;0.98;;;0.50;;
74689;SDS011;63221;51.860;-2.188;2022-09-09T08:33:58;2.80;;;1.17;;
74689;SDS011;63221;51.860;-2.188;2022-09-09T08:36:31;3.17;;;1.65;;
74689;SDS011;63221;51.860;-2.188;2022-09-09T08:38:58;1.77;;;1.30;;
74689;SDS011;63221;51.860;-2.188;2022-09-09T08:51:46;1.52;;;0.70;;
74689;SDS011;63221;51.860;-2.188;2022-09-09T08:54:13;2.40;;;0.73;;
74689;SDS011;63221;51.860;-2.188;2022-09-09T08:56:38;2.50;;;0.90;;
74689;SDS011;63221;51.860;-2.188;2022-09-09T08:59:04;1.20;;;0.80;;
74689;SDS011;63221;51.860;-2.188;2022-09-09T09:12:48;1.07;;;0.37;;
74689;SDS011;63221;51.860;-2.188;2022-09-09T09:15:16;1.02;;;0.20;;
74689;SDS011;63221;51.860;-2.188;2022-09-09T09:17:44;2.00;;;0.70;;
74689;SDS011;63221;51.860;-2.188;2022-09-09T09:20:13;0.87;;;0.83;;
74689;SDS011;63221;51.860;-2.188;2022-09-09T09:22:49;1.20;;;0.57;;
74689;SDS011;63221;51.860;-2.188;2022-09-09T09:25:34;0.80;;;0.57;;
74689;SDS011;63221;51.860;-2.188;2022-09-09T09:30:29;1.70;;;0.50;;
74689;SDS011;63221;51.860;-2.188;2022-09-09T09:33:05;0.70;;;0.40;;
74689;SDS011;63221;51.860;-2.188;2022-09-09T09:35:35;0.80;;;0.67;;
74689;SDS011;63221;51.860;-2.188;2022-09-09T09:38:01;0.80;;;0.30;;
74689;SDS011;63221;51.860;-2.188;2022-09-09T09:40:27;1.97;;;0.40;;
74689;SDS011;63221;51.860;-2.188;2022-09-09T09:42:54;4.03;;;0.82;;
74689;SDS011;63221;51.860;-2.188;2022-09-09T09:50:29;2.65;;;1.60;;
74689;SDS011;63221;51.860;-2.188;2022-09-09T09:53:00;1.50;;;1.00;;
74689;SDS011;63221;51.860;-2.188;2022-09-09T09:55:30;2.60;;;1.30;;
74689;SDS011;63221;51.860;-2.188;2022-09-09T09:58:02;0.90;;;0.60;;
74689;SDS011;63221;51.860;-2.188;2022-09-09T10:00:28;1.52;;;1.33;;
74689;SDS011;63221;51.860;-2.188;2022-09-09T10:02:54;1.48;;;0.85;;
74689;SDS011;63221;51.860;-2.188;2022-09-09T10:05:22;2.93;;;1.70;;
74689;SDS011;63221;51.860;-2.188;2022-09-09T10:10:53;5.05;;;4.20;;
74689;SDS011;63221;51.860;-2.188;2022-09-09T10:16:22;1.48;;;1.05;;
74689;SDS011;63221;51.860;-2.188;2022-09-09T10:18:58;1.33;;;1.03;;
74689;SDS011;63221;51.860;-2.188;2022-09-09T10:21:30;1.30;;;0.52;;
74689;SDS011;63221;51.860;-2.188;2022-09-09T10:24:01;2.55;;;0.60;;
74689;SDS011;63221;51.860;-2.188;2022-09-09T10:29:12;3.83;;;2.17;;
74689;SDS011;63221;51.860;-2.188;2022-09-09T10:31:53;3.83;;;1.20;;
74689;SDS011;63221;51.860;-2.188;2022-09-09T10:39:54;2.42;;;1.20;;
74689;SDS011;63221;51.860;-2.188;2022-09-09T10:42:29;2.33;;;1.20;;
74689;SDS011;63221;51.860;-2.188;2022-09-09T10:47:43;1.45;;;0.85;;
74689;SDS011;63221;51.860;-2.188;2022-09-09T10:53:18;2.50;;;0.75;;
74689;SDS011;63221;51.860;-2.188;2022-09-09T10:56:07;3.30;;;1.77;;
74689;SDS011;63221;51.860;-2.188;2022-09-09T10:58:37;1.40;;;0.60;;
74689;SDS011;63221;51.860;-2.188;2022-09-09T11:01:11;2.22;;;0.50;;
74689;SDS011;63221;51.860;-2.188;2022-09-09T11:03:41;1.73;;;0.90;;
74689;SDS011;63221;51.860;-2.188;2022-09-09T11:06:14;1.10;;;0.93;;
74689;SDS011;63221;51.860;-2.188;2022-09-09T11:08:43;1.70;;;0.60;;
74689;SDS011;63221;51.860;-2.188;2022-09-09T11:16:22;1.23;;;0.60;;
74689;SDS011;63221;51.860;-2.188;2022-09-09T11:18:48;2.88;;;1.90;;
74689;SDS011;63221;51.860;-2.188;2022-09-09T11:21:19;2.00;;;1.10;;
74689;SDS011;63221;51.860;-2.188;2022-09-09T11:24:23;1.07;;;0.40;;
74689;SDS011;63221;51.860;-2.188;2022-09-09T11:27:08;1.17;;;0.70;;
74689;SDS011;63221;51.860;-2.188;2022-09-09T11:40:46;1.00;;;0.47;;
74689;SDS011;63221;51.860;-2.188;2022-09-09T11:45:39;2.40;;;0.50;;
74689;SDS011;63221;51.860;-2.188;2022-09-09T11:48:26;0.80;;;0.40;;
74689;SDS011;63221;51.860;-2.188;2022-09-09T11:53:47;1.95;;;0.77;;
74689;SDS011;63221;51.860;-2.188;2022-09-09T11:56:22;0.93;;;0.47;;
74689;SDS011;63221;51.860;-2.188;2022-09-09T11:58:54;1.10;;;0.60;;
74689;SDS011;63221;51.860;-2.188;2022-09-09T12:01:44;0.65;;;0.45;;
74689;SDS011;63221;51.860;-2.188;2022-09-09T12:04:16;1.45;;;0.60;;
74689;SDS011;63221;51.860;-2.188;2022-09-09T12:12:21;1.10;;;0.63;;
74689;SDS011;63221;51.860;-2.188;2022-09-09T12:17:50;1.73;;;0.98;;
74689;SDS011;63221;51.860;-2.188;2022-09-09T12:28:04;0.77;;;0.50;;
74689;SDS011;63221;51.860;-2.188;2022-09-09T12:30:41;2.70;;;1.08;;
74689;SDS011;63221;51.860;-2.188;2022-09-09T12:33:38;1.15;;;0.60;;
74689;SDS011;63221;51.860;-2.188;2022-09-09T12:36:10;1.02;;;0.80;;
74689;SDS011;63221;51.860;-2.188;2022-09-09T12:38:38;1.60;;;0.63;;
74689;SDS011;63221;51.860;-2.188;2022-09-09T12:41:06;1.88;;;0.90;;
74689;SDS011;63221;51.860;-2.188;2022-09-09T12:43:49;1.85;;;0.90;;
74689;SDS011;63221;51.860;-2.188;2022-09-09T12:46:32;1.10;;;0.47;;
74689;SDS011;63221;51.860;-2.188;2022-09-09T12:49:01;1.25;;;0.55;;
74689;SDS011;63221;51.860;-2.188;2022-09-09T12:51:28;0.90;;;0.40;;
74689;SDS011;63221;51.860;-2.188;2022-09-09T12:53:55;1.17;;;0.55;;
74689;SDS011;63221;51.860;-2.188;2022-09-09T12:56:25;1.35;;;0.80;;
74689;SDS011;63221;51.860;-2.188;2022-09-09T12:58:53;1.55;;;0.60;;
74689;SDS011;63221;51.860;-2.188;2022-09-09T13:01:26;1.40;;;0.80;;
74689;SDS011;63221;51.860;-2.188;2022-09-09T13:03:53;1.10;;;0.77;;
74689;SDS011;63221;51.860;-2.188;2022-09-09T13:06:20;1.05;;;0.80;;
74689;SDS011;63221;51.860;-2.188;2022-09-09T13:08:53;1.63;;;1.00;;
74689;SDS011;63221;51.860;-2.188;2022-09-09T13:11:24;1.58;;;0.35;;
74689;SDS011;63221;51.860;-2.188;2022-09-09T13:14:29;1.00;;;0.68;;
74689;SDS011;63221;51.860;-2.188;2022-09-09T13:17:00;1.57;;;0.57;;
74689;SDS011;63221;51.860;-2.188;2022-09-09T13:19:26;1.70;;;0.63;;
74689;SDS011;63221;51.860;-2.188;2022-09-09T13:21:54;1.45;;;0.82;;
74689;SDS011;63221;51.860;-2.188;2022-09-09T13:24:28;1.20;;;0.47;;
74689;SDS011;63221;51.860;-2.188;2022-09-09T13:27:02;1.70;;;0.97;;
74689;SDS011;63221;51.860;-2.188;2022-09-09T13:29:29;2.38;;;0.63;;
74689;SDS011;63221;51.860;-2.188;2022-09-09T13:32:05;1.27;;;0.65;;
74689;SDS011;63221;51.860;-2.188;2022-09-09T13:34:33;1.90;;;1.33;;
74689;SDS011;63221;51.860;-2.188;2022-09-09T13:37:09;1.42;;;0.50;;
74689;SDS011;63221;51.860;-2.188;2022-09-09T13:39:50;1.33;;;1.23;;
74689;SDS011;63221;51.860;-2.188;2022-09-09T13:42:26;1.20;;;0.50;;
74689;SDS011;63221;51.860;-2.188;2022-09-09T13:44:53;1.42;;;0.60;;
74689;SDS011;63221;51.860;-2.188;2022-09-09T13:49:56;2.15;;;0.50;;
74689;SDS011;63221;51.860;-2.188;2022-09-09T13:52:21;2.13;;;0.70;;
74689;SDS011;63221;51.860;-2.188;2022-09-09T13:54:50;1.63;;;0.80;;
74689;SDS011;63221;51.860;-2.188;2022-09-09T13:57:21;0.98;;;0.88;;
74689;SDS011;63221;51.860;-2.188;2022-09-09T13:59:48;4.10;;;1.02;;
74689;SDS011;63221;51.860;-2.188;2022-09-09T14:02:17;3.23;;;0.50;;
74689;SDS011;63221;51.860;-2.188;2022-09-09T14:04:43;2.15;;;0.40;;
74689;SDS011;63221;51.860;-2.188;2022-09-09T14:07:15;1.08;;;0.75;;
74689;SDS011;63221;51.860;-2.188;2022-09-09T14:09:41;0.90;;;0.53;;
74689;SDS011;63221;51.860;-2.188;2022-09-09T14:12:12;0.75;;;0.40;;
74689;SDS011;63221;51.860;-2.188;2022-09-09T14:14:40;0.90;;;0.60;;
74689;SDS011;63221;51.860;-2.188;2022-09-09T14:17:07;2.70;;;0.50;;
74689;SDS011;63221;51.860;-2.188;2022-09-09T14:19:33;0.88;;;0.57;;
74689;SDS011;63221;51.860;-2.188;2022-09-09T14:21:58;1.57;;;0.70;;
74689;SDS011;63221;51.860;-2.188;2022-09-09T14:24:24;0.97;;;0.93;;
74689;SDS011;63221;51.860;-2.188;2022-09-09T14:26:50;2.15;;;0.90;;
74689;SDS011;63221;51.860;-2.188;2022-09-09T14:29:16;1.67;;;0.70;;
74689;SDS011;63221;51.860;-2.188;2022-09-09T14:31:41;1.08;;;0.70;;
74689;SDS011;63221;51.860;-2.188;2022-09-09T14:34:06;1.73;;;0.80;;
74689;SDS011;63221;51.860;-2.188;2022-09-09T14:36:32;0.85;;;0.50;;
74689;SDS011;63221;51.860;-2.188;2022-09-09T14:38:58;1.47;;;0.67;;
74689;SDS011;63221;51.860;-2.188;2022-09-09T14:41:24;1.43;;;0.67;;
74689;SDS011;63221;51.860;-2.188;2022-09-09T14:43:50;1.35;;;0.80;;
74689;SDS011;63221;51.860;-2.188;2022-09-09T14:46:16;1.23;;;0.90;;
74689;SDS011;63221;51.860;-2.188;2022-09-09T14:48:43;1.38;;;0.60;;
74689;SDS011;63221;51.860;-2.188;2022-09-09T14:51:13;1.25;;;0.50;;
74689;SDS011;63221;51.860;-2.188;2022-09-09T14:53:41;0.70;;;0.47;;
74689;SDS011;63221;51.860;-2.188;2022-09-09T14:56:08;0.90;;;0.50;;
74689;SDS011;63221;51.860;-2.188;2022-09-09T14:58:36;1.17;;;0.60;;
74689;SDS011;63221;51.860;-2.188;2022-09-09T15:01:07;1.55;;;0.68;;
74689;SDS011;63221;51.860;-2.188;2022-09-09T15:03:35;0.98;;;0.35;;
74689;SDS011;63221;51.860;-2.188;2022-09-09T15:06:08;1.27;;;0.80;;
74689;SDS011;63221;51.860;-2.188;2022-09-09T15:08:35;0.95;;;0.50;;
74689;SDS011;63221;51.860;-2.188;2022-09-09T15:11:01;1.20;;;0.70;;
74689;SDS011;63221;51.860;-2.188;2022-09-09T15:13:27;2.17;;;0.90;;
74689;SDS011;63221;51.860;-2.188;2022-09-09T15:15:53;2.50;;;0.90;;
74689;SDS011;63221;51.860;-2.188;2022-09-09T15:18:19;1.40;;;0.60;;
74689;SDS011;63221;51.860;-2.188;2022-09-09T15:20:45;1.17;;;0.70;;
74689;SDS011;63221;51.860;-2.188;2022-09-09T15:23:11;0.80;;;0.67;;
74689;SDS011;63221;51.860;-2.188;2022-09-09T15:25:37;2.42;;;0.80;;
74689;SDS011;63221;51.860;-2.188;2022-09-09T15:28:03;1.60;;;0.77;;
74689;SDS011;63221;51.860;-2.188;2022-09-09T15:30:28;1.80;;;1.23;;
74689;SDS011;63221;51.860;-2.188;2022-09-09T15:32:54;1.20;;;1.00;;
74689;SDS011;63221;51.860;-2.188;2022-09-09T15:35:19;1.80;;;0.90;;
74689;SDS011;63221;51.860;-2.188;2022-09-09T15:37:45;0.90;;;0.50;;
74689;SDS011;63221;51.860;-2.188;2022-09-09T15:40:10;1.47;;;0.63;;
74689;SDS011;63221;51.860;-2.188;2022-09-09T15:42:35;1.90;;;0.67;;
74689;SDS011;63221;51.860;-2.188;2022-09-09T15:45:01;1.03;;;0.60;;
74689;SDS011;63221;51.860;-2.188;2022-09-09T15:47:26;1.23;;;0.80;;
74689;SDS011;63221;51.860;-2.188;2022-09-09T15:49:52;1.02;;;0.63;;
74689;SDS011;63221;51.860;-2.188;2022-09-09T15:52:18;1.95;;;1.10;;
74689;SDS011;63221;51.860;-2.188;2022-09-09T15:54:43;1.87;;;1.00;;
74689;SDS011;63221;51.860;-2.188;2022-09-09T15:57:10;1.20;;;0.90;;
74689;SDS011;63221;51.860;-2.188;2022-09-09T15:59:37;1.10;;;0.97;;
74689;SDS011;63221;51.860;-2.188;2022-09-09T16:02:03;1.40;;;0.52;;
74689;SDS011;63221;51.860;-2.188;2022-09-09T16:04:30;0.97;;;0.40;;
74689;SDS011;63221;51.860;-2.188;2022-09-09T16:06:57;0.90;;;0.50;;
74689;SDS011;63221;51.860;-2.188;2022-09-09T16:09:24;1.23;;;0.60;;
74689;SDS011;63221;51.860;-2.188;2022-09-09T16:11:51;1.30;;;0.47;;
74689;SDS011;63221;51.860;-2.188;2022-09-09T16:14:18;1.05;;;0.80;;
74689;SDS011;63221;51.860;-2.188;2022-09-09T16:16:43;1.77;;;0.70;;
74689;SDS011;63221;51.860;-2.188;2022-09-09T16:19:10;2.03;;;0.40;;
74689;SDS011;63221;51.860;-2.188;2022-09-09T16:21:41;2.50;;;1.00;;
74689;SDS011;63221;51.860;-2.188;2022-09-09T16:24:09;1.23;;;1.00;;
74689;SDS011;63221;51.860;-2.188;2022-09-09T16:26:37;1.00;;;0.82;;
74689;SDS011;63221;51.860;-2.188;2022-09-09T16:29:04;1.65;;;0.55;;
74689;SDS011;63221;51.860;-2.188;2022-09-09T16:31:30;1.80;;;0.80;;
74689;SDS011;63221;51.860;-2.188;2022-09-09T16:33:59;0.80;;;0.70;;
74689;SDS011;63221;51.860;-2.188;2022-09-09T16:36:28;1.50;;;0.70;;
74689;SDS011;63221;51.860;-2.188;2022-09-09T16:38:59;0.82;;;0.40;;
74689;SDS011;63221;51.860;-2.188;2022-09-09T16:41:27;1.00;;;0.80;;
74689;SDS011;63221;51.860;-2.188;2022-09-09T16:43:53;0.90;;;0.60;;
74689;SDS011;63221;51.860;-2.188;2022-09-09T16:46:21;1.70;;;0.68;;
74689;SDS011;63221;51.860;-2.188;2022-09-09T16:48:47;1.13;;;0.90;;
74689;SDS011;63221;51.860;-2.188;2022-09-09T16:51:15;1.65;;;1.42;;
74689;SDS011;63221;51.860;-2.188;2022-09-09T16:53:43;1.13;;;0.55;;
74689;SDS011;63221;51.860;-2.188;2022-09-09T16:56:10;1.20;;;0.67;;